Time;durP1;ratioP1;P1;durP2;ratioP2;P2;SDS_P1;SDS_P2;PMS_P1;PMS_P2;Temp;Humidity;BMP_temperature;BMP_pressure;BME280_temperature;BME280_humidity;BME280_pressure;Samples;Min_cycle;Max_cycle;Signal;HPM_P1;HPM_P2
2022/12/22 03:25:56;;;;;;;;;;;;;;;;;;5093961;28;1267;-42
2022/12/22 03:28:25;;;;;;;;;;;;;;;;;;5093803;28;1738;-42
2022/12/22 03:30:55;;;;;;;;;;;;;;;;;;5093789;28;2040;-42
2022/12/22 03:33:22;;;;;;;;;;;;;;;;;;5093622;28;1994;-42
2022/12/22 03:35:49;;;;;;;;;;;;;;;;;;5093313;28;1306;-42
2022/12/22 03:38:16;;;;;;;;;;;;;;;;;;5093964;28;1271;-42
2022/12/22 03:40:44;;;;;;;;;;;;;;;;;;5093440;28;1579;-43
2022/12/22 03:51:32;;;;;;;;;;;;;;;;;;5093904;28;1897;-41
2022/12/22 03:53:59;;;;;;;;;;;;;;;;;;5093480;28;2141;-42
2022/12/22 03:56:27;;;;;;;;;;;;;;;;;;5092967;28;2322;-42
2022/12/22 03:58:54;;;;;;;;;;;;;;;;;;5093351;28;1871;-41
2022/12/22 04:01:21;;;;;;;;;;;;;;;;;;5092142;28;1816;-40
2022/12/22 04:03:49;;;;;;;;;;;;;;;;;;5093052;28;1906;-41
2022/12/22 04:06:17;;;;;;;;;;;;;;;;;;5111866;28;1913;-41
2022/12/22 04:08:44;;;;;;;;;;;;;;;;;;5113284;27;1955;-42
2022/12/22 04:13:58;;;;;;;;;;;;;;;;;;5113272;28;1442;-40
2022/12/22 04:16:25;;;;;;;;;;;;;;;;;;5113007;28;1579;-41
2022/12/22 04:18:52;;;;;;;;;;;;;;;;;;5112958;28;1821;-41
2022/12/22 04:21:19;;;;;;;;;;;;;;;;;;5113328;28;1678;-41
2022/12/22 04:23:50;;;;;;;;;;;;;;;;;;5111972;28;1973;-41
2022/12/22 04:26:17;;;;;;;;;;;;;;;;;;5102301;28;2049;-40
2022/12/22 04:28:45;;;;;;;;;;;;;;;;;;5092490;28;2017;-41
2022/12/22 04:31:14;;;;;;;;;;;;;;;;;;5092497;28;1837;-39
2022/12/22 04:33:41;;;;;;;;;;;;;;;;;;5092668;28;1787;-39
2022/12/22 04:36:09;;;;;;;;;;;;;;;;;;5092222;28;1665;-38
2022/12/22 04:38:36;;;;;;;;;;;;;;;;;;5093109;28;2050;-39
2022/12/22 04:41:03;;;;;;;;;;;;;;;;;;5092786;28;1541;-40
2022/12/22 04:43:31;;;;;;;;;;;;;;;;;;5092261;28;1922;-40
2022/12/22 04:45:58;;;;;;;;;;;;;;;;;;5092426;28;1798;-39
2022/12/22 04:48:26;;;;;;;;;;;;;;;;;;5092389;28;1209;-39
2022/12/22 04:50:56;;;;;;;;;;;;;;;;;;5092076;28;2113;-39
2022/12/22 04:53:27;;;;;;;;;;;;;;;;;;5092269;28;2127;-40
2022/12/22 04:55:58;;;;;;;;;;;;;;;;;;5091726;28;1651;-39
2022/12/22 04:58:26;;;;;;;;;;;;;;;;;;5092136;28;1992;-40
2022/12/22 05:00:53;;;;;;;;;;;;;;;;;;5091863;28;1458;-39
2022/12/22 05:03:20;;;;;;;;;;;;;;;;;;5091881;28;1910;-40
2022/12/22 05:05:47;;;;;;;;;;;;;;;;;;5106869;28;1869;-40
2022/12/22 05:08:15;;;;;;;;;;;;;;;;;;5112062;28;1704;-38
2022/12/22 05:10:42;;;;;;;;;;;;;;;;;;5110845;28;2737;-40
2022/12/22 05:13:09;;;;;;;;;;;;;;;;;;5112379;28;1928;-39
2022/12/22 05:15:36;;;;;;;;;;;;;;;;;;5112202;28;1939;-39
2022/12/22 05:18:04;;;;;;;;;;;;;;;;;;5112107;28;1609;-39
2022/12/22 05:20:31;;;;;;;;;;;;;;;;;;5111431;28;1497;-39
2022/12/22 05:22:58;;;;;;;;;;;;;;;;;;5110596;28;1982;-40
2022/12/22 05:25:25;;;;;;;;;;;;;;;;;;5112020;28;1750;-40
2022/12/22 05:27:58;;;;;;;;;;;;;;;;;;5111890;28;1535;-40
2022/12/22 05:30:26;;;;;;;;;;;;;;;;;;5111842;28;2085;-40
2022/12/22 05:32:53;;;;;;;;;;;;;;;;;;5111768;28;1986;-40
2022/12/22 05:35:20;;;;;;;;;;;;;;;;;;5111294;28;1733;-40
2022/12/22 05:37:47;;;;;;;;;;;;;;;;;;5111770;28;1820;-39
2022/12/22 05:40:14;;;;;;;;;;;;;;;;;;5111459;28;1834;-40
2022/12/22 05:42:41;;;;;;;;;;;;;;;;;;5111736;28;1913;-40
2022/12/22 05:45:08;;;;;;;;;;;;;;;;;;5111839;28;1642;-40
2022/12/22 05:47:35;;;;;;;;;;;;;;;;;;5112055;28;1998;-40
2022/12/22 05:50:03;;;;;;;;;;;;;;;;;;5111507;28;1649;-40
2022/12/22 05:52:33;;;;;;;;;;;;;;;;;;5112072;28;1856;-40
2022/12/22 05:55:00;;;;;;;;;;;;;;;;;;5111438;28;1652;-40
2022/12/22 05:57:27;;;;;;;;;;;;;;;;;;5111576;28;1363;-40
2022/12/22 05:59:54;;;;;;;;;;;;;;;;;;5111513;28;1865;-40
2022/12/22 06:02:21;;;;;;;;;;;;;;;;;;5111308;28;1970;-40
2022/12/22 06:04:49;;;;;;;;;;;;;;;;;;5110811;27;1309;-39
2022/12/22 06:07:16;;;;;;;;;;;;;;;;;;5111610;28;1884;-40
2022/12/22 06:09:43;;;;;;;;;;;;;;;;;;5111366;28;1689;-39
2022/12/22 06:12:10;;;;;;;;;;;;;;;;;;5111393;28;1806;-40
2022/12/22 06:14:37;;;;;;;;;;;;;;;;;;5111289;28;1933;-40
2022/12/22 06:17:05;;;;;;;;;;;;;;;;;;5111412;28;1801;-38
2022/12/22 06:19:32;;;;;;;;;;;;;;;;;;5110786;28;1487;-41
2022/12/22 06:21:59;;;;;;;;;;;;;;;;;;5110931;28;1863;-40
2022/12/22 06:24:26;;;;;;;;;;;;;;;;;;5110804;28;1902;-39
2022/12/22 06:26:53;;;;;;;;;;;;;;;;;;5111328;28;1849;-40
2022/12/22 06:29:21;;;;;;;;;;;;;;;;;;5111311;28;2043;-40
2022/12/22 06:31:48;;;;;;;;;;;;;;;;;;5111138;28;1517;-39
2022/12/22 06:34:16;;;;;;;;;;;;;;;;;;5110987;28;2098;-40
2022/12/22 06:36:46;;;;;;;;;;;;;;;;;;5110886;28;1604;-40
2022/12/22 06:39:14;;;;;;;;;;;;;;;;;;5111152;28;1295;-39
2022/12/22 06:44:27;;;;;;;;;;;;;;;;;;5110503;28;2035;-40
2022/12/22 06:46:54;;;;;;;;;;;;;;;;;;5112775;28;2266;-39
2022/12/22 06:49:22;;;;;;;;;;;;;;;;;;5115092;28;1484;-40
2022/12/22 06:51:49;;;;;;;;;;;;;;;;;;5114744;28;1578;-40
2022/12/22 06:54:16;;;;;;;;;;;;;;;;;;5115070;28;1705;-39
2022/12/22 06:56:49;;;;;;;;;;;;;;;;;;5114405;28;2116;-39
2022/12/22 06:59:16;;;;;;;;;;;;;;;;;;5114484;28;1653;-40
2022/12/22 07:01:43;;;;;;;;;;;;;;;;;;5114894;27;1496;-40
2022/12/22 07:04:15;;;;;;;;;;;;;;;;;;5114288;28;1966;-40
2022/12/22 07:06:43;;;;;;;;;;;;;;;;;;5114479;28;2154;-38
2022/12/22 07:09:10;;;;;;;;;;;;;;;;;;5114452;27;1817;-39
2022/12/22 07:11:37;;;;;;;;;;;;;;;;;;5114818;28;1563;-39
2022/12/22 07:14:04;;;;;;;;;;;;;;;;;;5114183;28;1646;-39
2022/12/22 07:16:31;;;;;;;;;;;;;;;;;;5114177;28;2004;-38
2022/12/22 07:18:58;;;;;;;;;;;;;;;;;;5114495;28;1846;-40
2022/12/22 07:21:26;;;;;;;;;;;;;;;;;;5114230;28;2020;-39
2022/12/22 07:23:52;;;;;;;;;;;;;;;;;;5114497;28;2252;-40
2022/12/22 07:26:20;;;;;;;;;;;;;;;;;;5114470;28;2002;-39
2022/12/22 07:28:47;;;;;;;;;;;;;;;;;;5113878;28;1941;-39
2022/12/22 07:31:15;;;;;;;;;;;;;;;;;;5114377;27;2001;-39
2022/12/22 07:33:42;;;;;;;;;;;;;;;;;;5113594;28;1939;-40
2022/12/22 07:36:11;;;;;;;;;;;;;;;;;;5112691;28;1840;-39
2022/12/22 07:38:40;;;;;;;;;;;;;;;;;;5113779;28;1936;-39
2022/12/22 07:43:57;;;;;;;;;;;;;;;;;;5072197;28;1906;-39
2022/12/22 07:46:25;;;;;;;;;;;;;;;;;;5113852;27;1842;-39
2022/12/22 07:51:39;;;;;;;;;;;;;;;;;;5113663;28;1831;-40
2022/12/22 07:54:07;;;;;;;;;;;;;;;;;;5114114;28;1938;-39
2022/12/22 07:56:35;;;;;;;;;;;;;;;;;;5113528;28;2030;-39
2022/12/22 07:59:02;;;;;;;;;;;;;;;;;;5113524;28;1526;-40
2022/12/22 08:01:29;;;;;;;;;;;;;;;;;;5113544;28;1863;-39
2022/12/22 08:03:57;;;;;;;;;;;;;;;;;;5113763;28;2096;-40
2022/12/22 08:06:24;;;;;;;;;;;;;;;;;;5113266;28;2093;-40
2022/12/22 08:08:51;;;;;;;;;;;;;;;;;;5113895;28;1977;-41
2022/12/22 08:11:18;;;;;;;;;;;;;;;;;;5112255;28;1676;-39
2022/12/22 08:13:46;;;;;;;;;;;;;;;;;;5113417;28;2112;-39
2022/12/22 08:16:13;;;;;;;;;;;;;;;;;;5112624;28;1736;-40
2022/12/22 08:18:40;;;;;;;;;;;;;;;;;;5113250;28;1998;-39
2022/12/22 08:21:08;;;;;;;;;;;;;;;;;;5113372;28;2054;-39
2022/12/22 08:23:35;;;;;;;;;;;;;;;;;;5113331;28;2025;-42
2022/12/22 08:26:09;;;;;;;;;;;;;;;;;;5112042;28;2033;-39
2022/12/22 08:28:41;;;;;;;;;;;;;;;;;;5113052;28;2216;-39
2022/12/22 08:31:09;;;;;;;;;;;;;;;;;;5112943;28;2027;-39
2022/12/22 08:33:36;;;;;;;;;;;;;;;;;;5113553;28;1753;-39
2022/12/22 08:36:04;;;;;;;;;;;;;;;;;;5112763;28;2064;-39
2022/12/22 08:38:38;;;;;;;;;;;;;;;;;;5112859;28;1446;-38
2022/12/22 08:41:07;;;;;;;;;;;;;;;;;;5112371;28;2093;-39
2022/12/22 08:43:34;;;;;;;;;;;;;;;;;;5113128;27;1929;-39
2022/12/22 08:46:01;;;;;;;;;;;;;;;;;;5112999;28;1848;-39
2022/12/22 08:48:28;;;;;;;;;;;;;;;;;;5112381;28;2165;-40
2022/12/22 08:50:56;;;;;;;;;;;;;;;;;;5112789;28;1936;-39
2022/12/22 08:53:23;;;;;;;;;;;;;;;;;;5112743;28;2007;-40
2022/12/22 08:56:10;;;;;;;;;;;;;;;;;;5112353;28;1948;-39
2022/12/22 08:58:39;;;;;;;;;;;;;;;;;;5112523;28;1983;-39
2022/12/22 09:01:06;;;;;;;;;;;;;;;;;;5112751;28;2206;-39
2022/12/22 09:03:33;;;;;;;;;;;;;;;;;;5112406;28;1993;-40
2022/12/22 09:06:00;;;;;;;;;;;;;;;;;;5112259;28;2102;-40
2022/12/22 09:08:28;;;;;;;;;;;;;;;;;;5112243;28;1408;-40
2022/12/22 09:10:55;;;;;;;;;;;;;;;;;;5111859;28;2123;-39
2022/12/22 09:13:22;;;;;;;;;;;;;;;;;;5112206;28;1854;-39
2022/12/22 09:15:49;;;;;;;;;;;;;;;;;;5111942;28;2046;-39
2022/12/22 09:18:16;;;;;;;;;;;;;;;;;;5112274;28;2013;-39
2022/12/22 09:20:43;;;;;;;;;;;;;;;;;;5111977;28;1630;-40
2022/12/22 09:23:11;;;;;;;;;;;;;;;;;;5111849;28;1951;-40
2022/12/22 09:25:38;;;;;;;;;;;;;;;;;;5112411;28;1929;-39
2022/12/22 09:28:08;;;;;;;;;;;;;;;;;;5112254;28;2093;-40
2022/12/22 09:30:35;;;;;;;;;;;;;;;;;;5112126;28;2104;-39
2022/12/22 09:33:02;;;;;;;;;;;;;;;;;;5110690;28;1873;-39
2022/12/22 09:35:29;;;;;;;;;;;;;;;;;;5112043;27;2300;-39
2022/12/22 09:37:56;;;;;;;;;;;;;;;;;;5111884;28;1495;-40
2022/12/22 09:40:25;;;;;;;;;;;;;;;;;;5111552;28;1993;-38
2022/12/22 09:42:53;;;;;;;;;;;;;;;;;;5111725;28;1912;-39
2022/12/22 09:45:20;;;;;;;;;;;;;;;;;;5111646;28;1965;-38
2022/12/22 09:47:55;;;;;;;;;;;;;;;;;;5111628;28;1867;-38
2022/12/22 09:50:24;;;;;;;;;;;;;;;;;;5111520;28;1820;-39
2022/12/22 09:53:01;;;;;;;;;;;;;;;;;;5111390;28;1964;-39
2022/12/22 09:55:29;;;;;;;;;;;;;;;;;;5111612;28;2081;-44
2022/12/22 09:57:56;;;;;;;;;;;;;;;;;;5111262;28;1898;-39
2022/12/22 10:00:27;;;;;;;;;;;;;;;;;;5111388;28;2003;-39
2022/12/22 10:02:54;;;;;;;;;;;;;;;;;;5111516;27;1834;-38
2022/12/22 10:05:29;;;;;;;;;;;;;;;;;;5111343;28;1969;-40
2022/12/22 10:08:00;;;;;;;;;;;;;;;;;;5111571;28;1819;-39
2022/12/22 10:10:29;;;;;;;;;;;;;;;;;;5111385;28;2226;-41
2022/12/22 10:12:57;;;;;;;;;;;;;;;;;;5110202;28;2070;-41
2022/12/22 10:15:25;;;;;;;;;;;;;;;;;;5111268;28;1937;-40
2022/12/22 10:18:07;;;;;;;;;;;;;;;;;;5111348;28;2151;-42
2022/12/22 10:20:37;;;;;;;;;;;;;;;;;;5111115;27;1875;-41
2022/12/22 10:23:24;;;;;;;;;;;;;;;;;;5113909;28;1989;-39
2022/12/22 10:25:57;;;;;;;;;;;;;;;;;;5115079;27;2010;-40
2022/12/22 10:28:47;;;;;;;;;;;;;;;;;;5115383;28;2107;-39
2022/12/22 10:31:25;;;;;;;;;;;;;;;;;;5115489;28;1730;-39
2022/12/22 10:33:53;;;;;;;;;;;;;;;;;;5115148;27;1586;-37
2022/12/22 10:36:29;;;;;;;;;;;;;;;;;;5115246;28;2045;-36
2022/12/22 10:38:58;;;;;;;;;;;;;;;;;;5114840;28;1771;-37
2022/12/22 10:41:27;;;;;;;;;;;;;;;;;;5114474;28;1829;-40
2022/12/22 10:43:56;;;;;;;;;;;;;;;;;;5114974;28;1933;-39
2022/12/22 10:46:49;;;;;;;;;;;;;;;;;;5114967;27;2171;-40
2022/12/22 10:49:25;;;;;;;;;;;;;;;;;;5112201;28;2038;-39
2022/12/22 10:51:57;;;;;;;;;;;;;;;;;;5115012;28;2031;-40
2022/12/22 10:54:31;;;;;;;;;;;;;;;;;;5114912;28;1623;-41
2022/12/22 10:57:00;;;;;;;;;;;;;;;;;;5114797;28;2107;-39
2022/12/22 10:59:27;;;;;;;;;;;;;;;;;;5115069;28;2097;-39
2022/12/22 11:02:14;;;;;;;;;;;;;;;;;;5114549;28;1916;-39
2022/12/22 11:04:42;;;;;;;;;;;;;;;;;;5114795;28;1898;-40
2022/12/22 11:07:09;;;;;;;;;;;;;;;;;;5114730;28;2031;-38
2022/12/22 11:09:36;;;;;;;;;;;;;;;;;;5114927;28;2107;-39
2022/12/22 11:12:04;;;;;;;;;;;;;;;;;;5113158;28;1812;-39
2022/12/22 11:14:55;;;;;;;;;;;;;;;;;;5113179;28;1856;-40
2022/12/22 11:17:33;;;;;;;;;;;;;;;;;;5113720;28;2070;-38
2022/12/22 11:20:19;;;;;;;;;;;;;;;;;;5110625;28;2018;-40
2022/12/22 11:23:00;;;;;;;;;;;;;;;;;;5113841;28;1823;-38
2022/12/22 11:25:33;;;;;;;;;;;;;;;;;;5114087;28;1977;-36
2022/12/22 11:28:11;;;;;;;;;;;;;;;;;;5113582;28;1748;-38
2022/12/22 11:31:05;;;;;;;;;;;;;;;;;;5114178;28;1906;-37
2022/12/22 11:33:35;;;;;;;;;;;;;;;;;;5111058;28;2294;-42
2022/12/22 11:36:04;;;;;;;;;;;;;;;;;;5113660;28;2402;-41
2022/12/22 11:38:45;;;;;;;;;;;;;;;;;;5113936;28;1999;-41
2022/12/22 11:41:16;;;;;;;;;;;;;;;;;;5113991;28;2142;-39
2022/12/22 11:43:43;;;;;;;;;;;;;;;;;;5113574;27;1927;-41
2022/12/22 11:46:22;;;;;;;;;;;;;;;;;;5113629;28;2324;-39
2022/12/22 11:49:15;;;;;;;;;;;;;;;;;;5113849;28;2183;-39
2022/12/22 11:52:00;;;;;;;;;;;;;;;;;;5111071;28;2117;-39
2022/12/22 11:54:47;;;;;;;;;;;;;;;;;;5112684;28;1927;-38
2022/12/22 11:57:33;;;;;;;;;;;;;;;;;;5113589;28;1959;-39
2022/12/22 12:00:17;;;;;;;;;;;;;;;;;;5111292;28;1831;-38
2022/12/22 12:02:53;;;;;;;;;;;;;;;;;;5111821;28;2266;-39
2022/12/22 12:05:20;;;;;;;;;;;;;;;;;;5103352;28;1946;-39
2022/12/22 12:07:49;;;;;;;;;;;;;;;;;;5112466;28;2099;-38
2022/12/22 12:10:22;;;;;;;;;;;;;;;;;;5112997;28;1784;-39
2022/12/22 12:13:01;;;;;;;;;;;;;;;;;;5113659;28;2020;-40
2022/12/22 12:15:46;;;;;;;;;;;;;;;;;;5112880;28;2027;-39
2022/12/22 12:18:31;;;;;;;;;;;;;;;;;;5111503;28;2041;-36
2022/12/22 12:21:20;;;;;;;;;;;;;;;;;;5113248;28;2146;-38
2022/12/22 12:23:53;;;;;;;;;;;;;;;;;;5111929;28;2062;-40
2022/12/22 12:26:29;;;;;;;;;;;;;;;;;;5111870;28;2022;-40
2022/12/22 12:29:09;;;;;;;;;;;;;;;;;;5110975;28;2395;-40
2022/12/22 12:31:38;;;;;;;;;;;;;;;;;;5111621;28;1954;-40
2022/12/22 12:34:09;;;;;;;;;;;;;;;;;;5111892;28;1833;-39
2022/12/22 12:36:36;;;;;;;;;;;;;;;;;;5111647;28;2213;-38
2022/12/22 12:39:22;;;;;;;;;;;;;;;;;;5111875;28;1960;-39
2022/12/22 12:41:53;;;;;;;;;;;;;;;;;;5111961;28;1905;-41
2022/12/22 12:44:23;;;;;;;;;;;;;;;;;;5110864;28;1899;-39
2022/12/22 12:46:54;;;;;;;;;;;;;;;;;;5111603;28;1890;-41
2022/12/22 12:49:33;;;;;;;;;;;;;;;;;;5111735;28;2130;-39
2022/12/22 12:52:01;;;;;;;;;;;;;;;;;;5111328;28;1906;-39
2022/12/22 12:54:28;;;;;;;;;;;;;;;;;;5110820;28;1413;-40
2022/12/22 12:57:00;;;;;;;;;;;;;;;;;;5111725;28;1858;-40
2022/12/22 12:59:40;;;;;;;;;;;;;;;;;;5111298;28;1960;-38
2022/12/22 13:02:25;;;;;;;;;;;;;;;;;;5111627;28;1924;-39
2022/12/22 13:05:00;;;;;;;;;;;;;;;;;;5104455;28;2063;-40
2022/12/22 13:07:46;;;;;;;;;;;;;;;;;;5110070;28;2177;-40
2022/12/22 13:10:21;;;;;;;;;;;;;;;;;;5111423;28;1350;-39
2022/12/22 13:12:50;;;;;;;;;;;;;;;;;;5111695;28;1943;-38
2022/12/22 13:15:49;;;;;;;;;;;;;;;;;;5112059;28;1703;-37
2022/12/22 13:18:28;;;;;;;;;;;;;;;;;;5077864;28;1483;-39
2022/12/22 13:20:56;;;;;;;;;;;;;;;;;;5110878;28;2130;-38
2022/12/22 13:23:55;;;;;;;;;;;;;;;;;;5110758;28;1999;-38
2022/12/22 13:26:44;;;;;;;;;;;;;;;;;;5108106;28;2053;-38
2022/12/22 13:29:29;;;;;;;;;;;;;;;;;;5111025;28;2043;-39
2022/12/22 13:31:59;;;;;;;;;;;;;;;;;;5111360;28;1843;-38
2022/12/22 13:34:29;;;;;;;;;;;;;;;;;;5110572;28;2235;-38
2022/12/22 13:36:59;;;;;;;;;;;;;;;;;;5110072;28;1571;-39
2022/12/22 13:39:26;;;;;;;;;;;;;;;;;;5109648;28;1908;-38
2022/12/22 13:41:56;;;;;;;;;;;;;;;;;;5102447;28;1788;-37
2022/12/22 13:44:28;;;;;;;;;;;;;;;;;;5110210;28;2095;-40
2022/12/22 13:47:00;;;;;;;;;;;;;;;;;;5110803;28;2088;-39
2022/12/22 13:49:28;;;;;;;;;;;;;;;;;;5111008;28;1816;-38
2022/12/22 13:52:17;;;;;;;;;;;;;;;;;;5109149;28;1758;-40
2022/12/22 13:54:45;;;;;;;;;;;;;;;;;;5110663;28;2087;-39
2022/12/22 13:57:14;;;;;;;;;;;;;;;;;;5109971;28;2134;-40
2022/12/22 13:59:43;;;;;;;;;;;;;;;;;;5109122;28;1777;-39
2022/12/22 14:02:11;;;;;;;;;;;;;;;;;;5110547;28;1840;-38
2022/12/22 14:04:39;;;;;;;;;;;;;;;;;;5110241;28;2065;-40
2022/12/22 14:07:13;;;;;;;;;;;;;;;;;;5110283;28;1876;-40
2022/12/22 14:09:47;;;;;;;;;;;;;;;;;;5110405;28;1936;-40
2022/12/22 14:12:19;;;;;;;;;;;;;;;;;;5109575;28;1867;-39
2022/12/22 14:14:47;;;;;;;;;;;;;;;;;;5110206;28;1943;-39
2022/12/22 14:17:17;;;;;;;;;;;;;;;;;;5110347;28;1795;-38
2022/12/22 14:19:47;;;;;;;;;;;;;;;;;;5110284;28;2138;-39
2022/12/22 14:22:15;;;;;;;;;;;;;;;;;;5111015;28;1830;-38
2022/12/22 14:24:59;;;;;;;;;;;;;;;;;;5109999;28;1957;-38
2022/12/22 14:27:35;;;;;;;;;;;;;;;;;;5110335;28;1859;-39
2022/12/22 14:30:04;;;;;;;;;;;;;;;;;;5110575;28;2118;-39
2022/12/22 14:32:36;;;;;;;;;;;;;;;;;;5109860;28;2028;-37
2022/12/22 14:35:14;;;;;;;;;;;;;;;;;;5110163;28;1869;-38
2022/12/22 14:37:42;;;;;;;;;;;;;;;;;;5110412;28;1726;-39
2022/12/22 14:40:28;;;;;;;;;;;;;;;;;;5110463;28;2113;-39
2022/12/22 14:42:56;;;;;;;;;;;;;;;;;;5110506;28;2157;-39
2022/12/22 14:45:23;;;;;;;;;;;;;;;;;;5110046;28;2036;-39
2022/12/22 14:47:53;;;;;;;;;;;;;;;;;;5110189;28;1766;-39
2022/12/22 14:50:22;;;;;;;;;;;;;;;;;;5110020;28;1974;-39
2022/12/22 14:52:51;;;;;;;;;;;;;;;;;;5110304;28;1967;-39
2022/12/22 14:55:26;;;;;;;;;;;;;;;;;;5110133;28;1914;-40
2022/12/22 14:58:02;;;;;;;;;;;;;;;;;;5110157;28;1949;-38
2022/12/22 15:00:29;;;;;;;;;;;;;;;;;;5110052;28;2114;-39
2022/12/22 15:02:57;;;;;;;;;;;;;;;;;;5109984;28;2054;-38
2022/12/22 15:05:31;;;;;;;;;;;;;;;;;;5109829;28;1964;-39
2022/12/22 15:07:59;;;;;;;;;;;;;;;;;;5111940;28;1893;-39
2022/12/22 15:10:42;;;;;;;;;;;;;;;;;;5113825;28;1962;-39
2022/12/22 15:13:21;;;;;;;;;;;;;;;;;;5112905;27;2221;-39
2022/12/22 15:15:49;;;;;;;;;;;;;;;;;;5111676;28;2376;-39
2022/12/22 15:18:18;;;;;;;;;;;;;;;;;;5111983;28;1856;-39
2022/12/22 15:20:45;;;;;;;;;;;;;;;;;;5111667;28;2005;-39
2022/12/22 15:23:15;;;;;;;;;;;;;;;;;;5112114;28;1825;-39
2022/12/22 15:25:43;;;;;;;;;;;;;;;;;;5112030;28;1914;-39
2022/12/22 15:28:10;;;;;;;;;;;;;;;;;;5112437;28;1923;-38
2022/12/22 15:30:37;;;;;;;;;;;;;;;;;;5113613;28;2056;-38
2022/12/22 15:33:10;;;;;;;;;;;;;;;;;;5113243;28;2040;-39
2022/12/22 15:35:38;;;;;;;;;;;;;;;;;;5113624;27;2061;-39
2022/12/22 15:38:10;;;;;;;;;;;;;;;;;;5113169;28;1497;-38
2022/12/22 15:40:38;;;;;;;;;;;;;;;;;;5113208;28;1800;-39
2022/12/22 15:43:05;;;;;;;;;;;;;;;;;;5112367;28;1923;-38
2022/12/22 15:45:44;;;;;;;;;;;;;;;;;;5113069;28;2191;-39
2022/12/22 15:48:17;;;;;;;;;;;;;;;;;;5112900;28;2005;-39
2022/12/22 15:50:44;;;;;;;;;;;;;;;;;;5113057;28;1606;-38
2022/12/22 15:53:14;;;;;;;;;;;;;;;;;;5113334;28;1901;-38
2022/12/22 15:55:43;;;;;;;;;;;;;;;;;;5112997;28;1945;-39
2022/12/22 15:58:11;;;;;;;;;;;;;;;;;;5112953;27;1878;-39
2022/12/22 16:00:38;;;;;;;;;;;;;;;;;;5113037;28;2114;-39
2022/12/22 16:03:06;;;;;;;;;;;;;;;;;;5111332;28;2090;-39
2022/12/22 16:05:33;;;;;;;;;;;;;;;;;;5111983;28;1977;-38
2022/12/22 16:08:01;;;;;;;;;;;;;;;;;;5111349;28;2055;-40
2022/12/22 16:10:33;;;;;;;;;;;;;;;;;;5112491;28;2142;-39
2022/12/22 16:13:01;;;;;;;;;;;;;;;;;;5112129;28;1941;-39
2022/12/22 16:15:30;;;;;;;;;;;;;;;;;;5112513;28;1911;-40
2022/12/22 16:17:58;;;;;;;;;;;;;;;;;;5112801;28;2069;-41
2022/12/22 16:20:26;;;;;;;;;;;;;;;;;;5112437;28;1656;-40
2022/12/22 16:22:53;;;;;;;;;;;;;;;;;;5112216;28;1975;-40
2022/12/22 16:25:32;;;;;;;;;;;;;;;;;;5112810;28;1976;-40
2022/12/22 16:28:00;;;;;;;;;;;;;;;;;;5111936;28;1940;-40
2022/12/22 16:30:31;;;;;;;;;;;;;;;;;;5112439;28;1866;-40
2022/12/22 16:32:58;;;;;;;;;;;;;;;;;;5112298;28;1888;-40
2022/12/22 16:35:26;;;;;;;;;;;;;;;;;;5112621;28;1899;-39
2022/12/22 16:37:57;;;;;;;;;;;;;;;;;;5112104;28;1941;-40
2022/12/22 16:40:25;;;;;;;;;;;;;;;;;;5111807;28;1898;-40
2022/12/22 16:43:00;;;;;;;;;;;;;;;;;;5112615;28;2099;-39
2022/12/22 16:45:45;;;;;;;;;;;;;;;;;;5112807;28;1912;-40
2022/12/22 16:48:17;;;;;;;;;;;;;;;;;;5112225;28;1357;-39
2022/12/22 16:50:45;;;;;;;;;;;;;;;;;;5111825;28;1971;-39
2022/12/22 16:53:13;;;;;;;;;;;;;;;;;;5112097;28;1890;-40
2022/12/22 16:55:42;;;;;;;;;;;;;;;;;;5112089;28;2106;-40
2022/12/22 16:58:10;;;;;;;;;;;;;;;;;;5112310;28;1979;-41
2022/12/22 17:00:41;;;;;;;;;;;;;;;;;;5111919;28;1977;-41
2022/12/22 17:03:24;;;;;;;;;;;;;;;;;;5112197;28;1967;-39
2022/12/22 17:05:52;;;;;;;;;;;;;;;;;;5111877;28;1991;-40
2022/12/22 17:08:32;;;;;;;;;;;;;;;;;;5111740;28;1952;-40
2022/12/22 17:11:02;;;;;;;;;;;;;;;;;;5111428;28;1982;-41
2022/12/22 17:13:37;;;;;;;;;;;;;;;;;;5111685;28;1419;-39
2022/12/22 17:16:04;;;;;;;;;;;;;;;;;;5111993;28;1917;-39
2022/12/22 17:18:32;;;;;;;;;;;;;;;;;;5111223;28;1849;-40
2022/12/22 17:20:59;;;;;;;;;;;;;;;;;;5111337;28;2062;-41
2022/12/22 17:23:31;;;;;;;;;;;;;;;;;;5111504;28;2074;-40
2022/12/22 17:25:59;;;;;;;;;;;;;;;;;;5111406;28;1972;-41
2022/12/22 17:28:26;;;;;;;;;;;;;;;;;;5110914;28;1831;-39
2022/12/22 17:30:54;;;;;;;;;;;;;;;;;;5110539;28;1875;-41
2022/12/22 17:33:21;;;;;;;;;;;;;;;;;;5108516;28;2218;-41
2022/12/22 17:35:48;;;;;;;;;;;;;;;;;;5109821;28;1815;-39
2022/12/22 17:38:19;;;;;;;;;;;;;;;;;;5109178;28;1850;-42
2022/12/22 17:40:47;;;;;;;;;;;;;;;;;;5109026;28;1723;-39
2022/12/22 17:43:18;;;;;;;;;;;;;;;;;;5109331;28;2065;-39
2022/12/22 17:45:46;;;;;;;;;;;;;;;;;;5110195;28;1905;-40
2022/12/22 17:48:14;;;;;;;;;;;;;;;;;;5110259;28;1914;-38
2022/12/22 17:50:42;;;;;;;;;;;;;;;;;;5111081;28;1901;-39
2022/12/22 17:53:13;;;;;;;;;;;;;;;;;;5110963;28;2001;-39
2022/12/22 17:55:40;;;;;;;;;;;;;;;;;;5111349;28;1993;-39
2022/12/22 17:58:27;;;;;;;;;;;;;;;;;;5109835;28;2132;-39
2022/12/22 18:00:54;;;;;;;;;;;;;;;;;;5109841;28;1771;-39
2022/12/22 18:03:21;;;;;;;;;;;;;;;;;;5105033;28;1937;-39
2022/12/22 18:05:48;;;;;;;;;;;;;;;;;;5105300;28;2018;-39
2022/12/22 18:08:17;;;;;;;;;;;;;;;;;;5110928;28;1254;-39
2022/12/22 18:10:45;;;;;;;;;;;;;;;;;;5110321;28;2245;-38
2022/12/22 18:13:14;;;;;;;;;;;;;;;;;;5110526;28;1751;-38
2022/12/22 18:15:41;;;;;;;;;;;;;;;;;;5110947;28;1466;-39
2022/12/22 18:18:12;;;;;;;;;;;;;;;;;;5110590;28;2068;-39
2022/12/22 18:20:40;;;;;;;;;;;;;;;;;;5110657;28;1365;-39
2022/12/22 18:23:21;;;;;;;;;;;;;;;;;;5110583;28;1970;-38
2022/12/22 18:25:48;;;;;;;;;;;;;;;;;;5110549;28;2098;-38
2022/12/22 18:28:16;;;;;;;;;;;;;;;;;;5111068;28;1823;-38
2022/12/22 18:30:43;;;;;;;;;;;;;;;;;;5110091;28;2061;-39
2022/12/22 18:33:10;;;;;;;;;;;;;;;;;;5110340;28;2111;-37
2022/12/22 18:35:38;;;;;;;;;;;;;;;;;;5111096;28;1971;-39
2022/12/22 18:38:05;;;;;;;;;;;;;;;;;;5110527;28;1767;-38
2022/12/22 18:40:34;;;;;;;;;;;;;;;;;;5110573;28;2073;-39
2022/12/22 18:43:05;;;;;;;;;;;;;;;;;;5112284;28;1773;-38
2022/12/22 18:45:32;;;;;;;;;;;;;;;;;;5114332;28;2013;-38
2022/12/22 18:47:59;;;;;;;;;;;;;;;;;;5115090;28;1892;-38
2022/12/22 18:50:28;;;;;;;;;;;;;;;;;;5114169;28;1865;-38
2022/12/22 18:52:57;;;;;;;;;;;;;;;;;;5114520;28;2137;-37
2022/12/22 18:55:25;;;;;;;;;;;;;;;;;;5112873;28;1863;-38
2022/12/22 18:57:54;;;;;;;;;;;;;;;;;;5114449;28;1890;-38
2022/12/22 19:00:33;;;;;;;;;;;;;;;;;;5113998;28;1766;-37
2022/12/22 19:03:01;;;;;;;;;;;;;;;;;;5114072;28;1553;-39
2022/12/22 19:05:29;;;;;;;;;;;;;;;;;;5114476;28;2109;-38
2022/12/22 19:07:57;;;;;;;;;;;;;;;;;;5114375;28;1852;-37
2022/12/22 19:10:39;;;;;;;;;;;;;;;;;;5113837;28;2047;-37
2022/12/22 19:13:14;;;;;;;;;;;;;;;;;;5113872;28;2156;-38
2022/12/22 19:15:42;;;;;;;;;;;;;;;;;;5114585;28;1877;-37
2022/12/22 19:18:13;;;;;;;;;;;;;;;;;;5113812;28;1574;-37
2022/12/22 19:20:40;;;;;;;;;;;;;;;;;;5113645;27;1818;-38
2022/12/22 19:23:07;;;;;;;;;;;;;;;;;;5114017;28;1636;-38
2022/12/22 19:25:35;;;;;;;;;;;;;;;;;;5113780;28;2156;-38
2022/12/22 19:28:05;;;;;;;;;;;;;;;;;;5114121;28;1987;-37
2022/12/22 19:30:33;;;;;;;;;;;;;;;;;;5113697;28;1940;-37
2022/12/22 19:33:02;;;;;;;;;;;;;;;;;;5113704;28;1873;-38
2022/12/22 19:35:30;;;;;;;;;;;;;;;;;;5113788;28;1752;-38
2022/12/22 19:38:02;;;;;;;;;;;;;;;;;;5113844;28;1716;-38
2022/12/22 19:40:31;;;;;;;;;;;;;;;;;;5113704;28;1919;-37
2022/12/22 19:42:59;;;;;;;;;;;;;;;;;;5113685;28;1901;-38
2022/12/22 19:45:27;;;;;;;;;;;;;;;;;;5113660;28;1883;-38
2022/12/22 19:47:56;;;;;;;;;;;;;;;;;;5113015;28;2007;-37
2022/12/22 19:50:26;;;;;;;;;;;;;;;;;;5113538;28;1755;-39
2022/12/22 19:52:54;;;;;;;;;;;;;;;;;;5112665;28;1894;-37
2022/12/22 19:55:22;;;;;;;;;;;;;;;;;;5113280;28;2059;-40
2022/12/22 19:57:50;;;;;;;;;;;;;;;;;;5112871;28;1810;-38
2022/12/22 20:00:18;;;;;;;;;;;;;;;;;;5112546;28;2207;-39
2022/12/22 20:02:46;;;;;;;;;;;;;;;;;;5113330;28;2217;-38
2022/12/22 20:05:26;;;;;;;;;;;;;;;;;;5113101;28;1933;-38
2022/12/22 20:07:59;;;;;;;;;;;;;;;;;;5113159;28;2069;-38
2022/12/22 20:10:28;;;;;;;;;;;;;;;;;;5113383;28;1838;-39
2022/12/22 20:12:57;;;;;;;;;;;;;;;;;;5113110;28;2092;-38
2022/12/22 20:15:33;;;;;;;;;;;;;;;;;;5112599;27;1957;-38
2022/12/22 20:18:01;;;;;;;;;;;;;;;;;;5112536;28;1988;-38
2022/12/22 20:20:33;;;;;;;;;;;;;;;;;;5112129;28;1415;-38
2022/12/22 20:23:03;;;;;;;;;;;;;;;;;;5112657;28;1877;-38
2022/12/22 20:25:33;;;;;;;;;;;;;;;;;;5112983;27;1790;-38
2022/12/22 20:28:01;;;;;;;;;;;;;;;;;;5112982;28;1972;-38
2022/12/22 20:30:29;;;;;;;;;;;;;;;;;;5113211;28;1936;-39
2022/12/22 20:32:56;;;;;;;;;;;;;;;;;;5112656;28;1670;-40
2022/12/22 20:35:23;;;;;;;;;;;;;;;;;;5112048;28;2127;-39
2022/12/22 20:37:50;;;;;;;;;;;;;;;;;;5112699;28;2094;-39
2022/12/22 20:40:23;;;;;;;;;;;;;;;;;;5112022;28;2185;-39
2022/12/22 20:42:50;;;;;;;;;;;;;;;;;;5112210;27;1701;-39
2022/12/22 20:45:20;;;;;;;;;;;;;;;;;;5112422;28;1732;-39
2022/12/22 20:47:47;;;;;;;;;;;;;;;;;;5112401;28;1917;-38
2022/12/22 20:50:25;;;;;;;;;;;;;;;;;;5111202;28;1806;-38
2022/12/22 20:52:53;;;;;;;;;;;;;;;;;;5112081;28;1965;-38
2022/12/22 20:55:22;;;;;;;;;;;;;;;;;;5111255;28;2007;-36
2022/12/22 20:57:49;;;;;;;;;;;;;;;;;;5111637;28;2014;-39
2022/12/22 21:00:21;;;;;;;;;;;;;;;;;;5111853;28;1861;-39
2022/12/22 21:02:49;;;;;;;;;;;;;;;;;;5111767;28;1620;-36
2022/12/22 21:05:18;;;;;;;;;;;;;;;;;;5111349;28;2022;-37
2022/12/22 21:07:48;;;;;;;;;;;;;;;;;;5111666;28;2071;-37
2022/12/22 21:10:20;;;;;;;;;;;;;;;;;;5112162;28;1934;-37